Time;durP1;ratioP1;P1;durP2;ratioP2;P2;SDS_P1;SDS_P2;PMS_P1;PMS_P2;Temp;Humidity;BMP_temperature;BMP_pressure;BME280_temperature;BME280_humidity;BME280_pressure;Samples;Min_cycle;Max_cycle;Signal;HPM_P1;HPM_P2
2022/04/01 00:02:28;;;;;;;;;;;;;;;7.16;70.49;98339.56;5024296;28;19929;-63
2022/04/01 00:05:11;;;;;;;;;;;;;;;7.13;70.28;98337.00;5016557;28;19929;-63
2022/04/01 00:07:56;;;;;;;;;;;;;;;7.14;70.68;98335.28;5016817;28;19928;-63
2022/04/01 00:10:39;;;;;;;;;;;;;;;7.15;70.51;98339.56;5017245;28;19968;-63
2022/04/01 00:13:23;;;;;;;;;;;;;;;7.13;70.28;98339.59;5015969;28;19932;-62
2022/04/01 00:16:07;;;;;;;;;;;;;;;7.14;70.48;98343.00;5016176;28;19928;-63
2022/04/01 00:18:51;;;;;;;;;;;;;;;7.15;70.62;98347.31;5017080;28;19972;-63
2022/04/01 00:21:35;;;;;;;;;;;;;;;7.13;70.70;98347.31;5016583;28;19928;-63
2022/04/01 00:24:19;;;;;;;;;;;;;;;7.11;70.81;98345.56;5016494;28;19928;-63
2022/04/01 00:27:03;;;;;;;;;;;;;;;7.12;70.53;98344.72;5016575;28;19929;-63
2022/04/01 00:29:48;;;;;;;;;;;;;;;7.09;70.75;98355.00;5016825;28;20068;-64
2022/04/01 00:32:33;;;;;;;;;;;;;;;7.07;70.44;98346.44;5016136;28;19991;-63
2022/04/01 00:35:16;;;;;;;;;;;;;;;7.06;70.19;98350.72;5016266;28;20020;-63
2022/04/01 00:38:00;;;;;;;;;;;;;;;7.05;70.29;98353.31;5015096;28;20024;-63
2022/04/01 00:40:44;;;;;;;;;;;;;;;7.04;70.64;98362.72;5016454;28;20013;-63
2022/04/01 00:43:30;;;;;;;;;;;;;;;7.04;70.46;98362.72;5016151;28;20364;-63
2022/04/01 00:46:15;;;;;;;;;;;;;;;7.05;70.61;98359.28;5015547;28;20051;-64
2022/04/01 00:48:59;;;;;;;;;;;;;;;7.09;70.81;98355.88;5015061;28;19944;-63
2022/04/01 00:51:44;;;;;;;;;;;;;;;7.08;70.43;98361.03;5029178;28;19979;-63
2022/04/01 00:54:28;;;;;;;;;;;;;;;7.08;70.27;98368.78;5015201;28;19967;-63
2022/04/01 00:57:18;;;;;;;;;;;;;;;7.09;70.26;98368.75;5015561;28;19971;-63
2022/04/01 01:00:03;;;;;;;;;;;;;;;7.08;70.51;98367.03;5015339;28;19928;-63
2022/04/01 01:02:47;;;;;;;;;;;;;;;7.10;70.54;98365.34;5014922;28;19930;-63
2022/04/01 01:05:31;;;;;;;;;;;;;;;7.12;70.17;98365.31;5015705;28;20011;-63
2022/04/01 01:08:15;;;;;;;;;;;;;;;7.10;70.48;98362.75;5016044;28;20427;-63
2022/04/01 01:11:01;;;;;;;;;;;;;;;7.09;70.20;98361.03;5015860;28;20281;-64
2022/04/01 01:13:45;;;;;;;;;;;;;;;7.07;70.86;98361.91;5014803;28;19928;-63
2022/04/01 01:16:32;;;;;;;;;;;;;;;7.07;70.60;98367.03;5015486;28;19928;-63
2022/04/01 01:19:16;;;;;;;;;;;;;;;7.05;70.21;98361.88;5015561;28;19928;-63
2022/04/01 01:22:00;;;;;;;;;;;;;;;7.03;70.31;98362.72;5015623;28;19928;-63
2022/04/01 01:24:46;;;;;;;;;;;;;;;7.00;70.27;98367.00;5015564;28;20375;-63
2022/04/01 01:27:30;;;;;;;;;;;;;;;6.99;70.57;98369.59;5028672;28;19975;-63
2022/04/01 01:30:14;;;;;;;;;;;;;;;6.98;70.32;98361.00;5014847;28;19932;-63
2022/04/01 01:32:58;;;;;;;;;;;;;;;6.96;70.52;98367.84;5014391;28;19927;-63
2022/04/01 01:35:42;;;;;;;;;;;;;;;6.95;70.31;98367.84;5015034;28;19968;-63
2022/04/01 01:38:26;;;;;;;;;;;;;;;6.97;70.30;98368.72;5015170;28;19928;-63
2022/04/01 01:41:11;;;;;;;;;;;;;;;6.95;70.46;98363.56;5015545;28;19927;-63
2022/04/01 01:43:55;;;;;;;;;;;;;;;6.95;70.41;98366.13;5015371;28;19928;-63
2022/04/01 01:46:39;;;;;;;;;;;;;;;6.95;70.71;98357.56;5015159;28;19929;-63
2022/04/01 01:49:23;;;;;;;;;;;;;;;6.95;70.37;98363.56;5014394;28;20431;-63
2022/04/01 01:55:10;;;;;;;;;;;;;;;6.93;70.75;98367.84;5015010;28;19967;-64
2022/04/01 01:57:55;;;;;;;;;;;;;;;6.93;70.77;98367.00;5014746;28;19948;-63
2022/04/01 02:00:39;;;;;;;;;;;;;;;6.91;70.40;98374.72;5015060;28;19967;-63
2022/04/01 02:03:23;;;;;;;;;;;;;;;6.89;70.73;98368.69;5052536;28;19927;-63
2022/04/01 02:06:07;;;;;;;;;;;;;;;6.92;70.31;98373.00;5054256;28;19928;-63
2022/04/01 02:08:53;;;;;;;;;;;;;;;6.91;70.62;98373.84;5039579;28;19928;-63
2022/04/01 02:11:37;;;;;;;;;;;;;;;6.90;70.76;98375.56;5054213;28;19970;-63
2022/04/01 02:14:21;;;;;;;;;;;;;;;6.88;70.75;98366.97;5054280;28;19928;-63
2022/04/01 02:17:05;;;;;;;;;;;;;;;6.87;70.93;98370.41;5054059;28;20021;-63
2022/04/01 02:19:50;;;;;;;;;;;;;;;6.87;70.63;98370.41;5054381;28;19969;-64
2022/04/01 02:22:40;;;;;;;;;;;;;;;6.87;70.88;98375.56;5053787;28;19979;-63
2022/04/01 02:25:24;;;;;;;;;;;;;;;6.84;70.53;98379.00;5039458;28;20283;-63
2022/04/01 02:28:09;;;;;;;;;;;;;;;6.83;70.87;98371.25;5039330;28;19927;-63
2022/04/01 02:30:53;;;;;;;;;;;;;;;6.82;70.65;98382.38;5053766;28;19928;-63
2022/04/01 02:33:37;;;;;;;;;;;;;;;6.81;70.95;98384.13;5038758;28;20017;-63
2022/04/01 02:36:21;;;;;;;;;;;;;;;6.81;70.93;98383.25;5053969;28;20061;-64
2022/04/01 02:39:05;;;;;;;;;;;;;;;6.80;70.87;98379.81;5053431;28;20307;-63
2022/04/01 02:41:49;;;;;;;;;;;;;;;6.79;71.20;98383.25;5053820;28;19932;-63
2022/04/01 02:44:33;;;;;;;;;;;;;;;6.78;71.14;98386.66;5053753;28;19928;-63
2022/04/01 02:47:17;;;;;;;;;;;;;;;6.78;70.56;98386.66;5053945;28;19927;-63
2022/04/01 02:50:02;;;;;;;;;;;;;;;6.78;70.97;98389.25;5053700;28;20016;-63
2022/04/01 02:52:45;;;;;;;;;;;;;;;6.79;70.47;98385.81;5053739;28;19943;-64
2022/04/01 02:55:29;;;;;;;;;;;;;;;6.77;71.00;98390.09;5054169;28;19967;-63
2022/04/01 02:58:13;;;;;;;;;;;;;;;6.77;70.89;98389.25;5038557;28;19979;-64
2022/04/01 03:00:57;;;;;;;;;;;;;;;6.74;70.70;98387.50;5038882;28;19997;-63
2022/04/01 03:03:41;;;;;;;;;;;;;;;6.74;71.19;98391.81;5039052;28;19928;-63
2022/04/01 03:06:25;;;;;;;;;;;;;;;6.73;71.06;98390.09;5053677;28;19931;-63
2022/04/01 03:09:12;;;;;;;;;;;;;;;6.70;70.66;98389.22;5053556;28;19974;-63
2022/04/01 03:11:59;;;;;;;;;;;;;;;6.71;70.94;98390.06;5038822;28;19945;-63
2022/04/01 03:14:43;;;;;;;;;;;;;;;6.71;70.87;98395.22;5038252;28;19971;-63
2022/04/01 03:17:28;;;;;;;;;;;;;;;6.70;70.82;98399.50;5053659;28;19944;-63
2022/04/01 03:20:15;;;;;;;;;;;;;;;6.71;71.13;98395.22;5053255;28;20403;-63
2022/04/01 03:22:59;;;;;;;;;;;;;;;6.70;70.88;98403.78;5053399;28;20303;-64
2022/04/01 03:25:42;;;;;;;;;;;;;;;6.67;70.85;98399.50;5038433;28;20300;-63
2022/04/01 03:28:26;;;;;;;;;;;;;;;6.67;71.10;98404.63;5053645;28;19943;-63
2022/04/01 03:31:10;;;;;;;;;;;;;;;6.69;70.79;98402.09;5053485;28;19928;-63
2022/04/01 03:33:57;;;;;;;;;;;;;;;6.67;70.96;98406.38;5052986;28;19932;-63
2022/04/01 03:36:41;;;;;;;;;;;;;;;6.65;70.94;98408.91;5038724;28;19987;-63
2022/04/01 03:39:25;;;;;;;;;;;;;;;6.63;70.59;98410.59;5038684;28;19974;-63
2022/04/01 03:42:09;;;;;;;;;;;;;;;6.63;71.07;98413.19;5038164;28;20019;-64
2022/04/01 03:44:53;;;;;;;;;;;;;;;6.62;70.99;98415.75;5053272;28;20059;-63
2022/04/01 03:47:57;;;;;;;;;;;;;;;6.64;71.06;98411.50;5053053;28;20292;-62
2022/04/01 03:50:41;;;;;;;;;;;;;;;6.65;70.81;98415.78;5041921;28;19979;-64
2022/04/01 03:53:27;;;;;;;;;;;;;;;6.63;70.75;98428.63;5057044;28;19928;-62
2022/04/01 03:56:12;;;;;;;;;;;;;;;6.61;71.19;98425.22;5042218;28;19975;-63
2022/04/01 03:59:03;;;;;;;;;;;;;;;6.60;71.04;98431.22;5056411;28;19929;-63
2022/04/01 04:01:47;;;;;;;;;;;;;;;6.58;71.08;98440.63;5041764;28;19967;-64
2022/04/01 04:04:35;;;;;;;;;;;;;;;6.55;70.95;98431.16;5041822;28;19927;-63
2022/04/01 04:07:19;;;;;;;;;;;;;;;6.53;71.32;98435.47;5041505;28;19966;-62
2022/04/01 04:10:09;;;;;;;;;;;;;;;6.54;71.27;98436.31;5056778;28;19966;-63
2022/04/01 04:12:54;;;;;;;;;;;;;;;6.53;70.87;98445.75;5056413;28;19944;-63
2022/04/01 04:16:00;;;;;;;;;;;;;;;6.54;71.01;98441.47;5041348;28;19928;-63
2022/04/01 04:18:48;;;;;;;;;;;;;;;6.50;71.00;98438.00;5040969;28;20381;-63
2022/04/01 04:21:39;;;;;;;;;;;;;;;6.49;71.20;98443.13;5056522;28;20425;-64
2022/04/01 04:24:29;;;;;;;;;;;;;;;6.47;71.07;98452.53;5056530;28;20014;-63
2022/04/01 04:27:15;;;;;;;;;;;;;;;6.46;71.02;98466.28;5056179;28;19991;-63
2022/04/01 04:30:08;;;;;;;;;;;;;;;6.47;71.07;98457.69;5041288;28;19927;-63
2022/04/01 04:32:56;;;;;;;;;;;;;;;6.45;71.09;98465.41;5041379;28;20414;-63
2022/04/01 04:35:40;;;;;;;;;;;;;;;6.42;70.89;98465.38;5041102;28;20016;-62
2022/04/01 04:38:26;;;;;;;;;;;;;;;6.39;71.17;98475.66;5056479;28;20415;-63
2022/04/01 04:41:10;;;;;;;;;;;;;;;6.34;70.87;98478.19;5041230;28;20342;-63
2022/04/01 04:43:54;;;;;;;;;;;;;;;6.34;71.03;98479.91;5040954;28;20011;-63
2022/04/01 04:46:41;;;;;;;;;;;;;;;6.35;71.12;98484.22;5056215;28;19928;-63
2022/04/01 04:49:27;;;;;;;;;;;;;;;6.34;70.63;98483.34;5040674;28;20346;-63
2022/04/01 04:52:12;;;;;;;;;;;;;;;6.32;71.05;98487.59;5041353;28;19928;-62
2022/04/01 04:54:56;;;;;;;;;;;;;;;6.28;70.45;98496.19;5055731;28;20450;-63
2022/04/01 04:57:41;;;;;;;;;;;;;;;6.30;71.13;98501.31;5055837;28;19971;-62
2022/04/01 05:00:25;;;;;;;;;;;;;;;6.28;70.80;98503.91;5039992;28;19927;-62
2022/04/01 05:03:24;;;;;;;;;;;;;;;6.25;71.19;98506.44;5055924;28;20013;-63
2022/04/01 05:06:10;;;;;;;;;;;;;;;6.20;70.45;98508.97;5055165;28;19943;-63
2022/04/01 05:08:54;;;;;;;;;;;;;;;6.21;70.75;98518.41;5055666;28;20012;-62
2022/04/01 05:11:58;;;;;;;;;;;;;;;6.15;70.67;98520.06;5055337;28;19967;-63
2022/04/01 05:15:00;;;;;;;;;;;;;;;6.18;71.08;98522.66;5032520;28;19927;-62
2022/04/01 05:17:53;;;;;;;;;;;;;;;6.16;70.85;98530.38;5040359;28;20102;-63
2022/04/01 05:20:38;;;;;;;;;;;;;;;6.13;70.46;98532.06;5040078;28;20299;-64
2022/04/01 05:23:41;;;;;;;;;;;;;;;6.09;70.47;98539.75;5055407;28;20460;-63
2022/04/01 05:26:38;;;;;;;;;;;;;;;6.10;70.50;98538.00;5039882;28;19931;-63
2022/04/01 05:29:26;;;;;;;;;;;;;;;6.07;70.41;98551.72;5040290;28;19950;-64
2022/04/01 05:32:11;;;;;;;;;;;;;;;6.08;70.74;98550.88;5054977;28;19967;-62
2022/04/01 05:34:57;;;;;;;;;;;;;;;6.06;70.54;98556.84;5055065;28;19927;-63
2022/04/01 05:37:42;;;;;;;;;;;;;;;6.08;71.10;98560.28;5054978;28;20288;-62
2022/04/01 05:40:27;;;;;;;;;;;;;;;6.09;70.79;98559.44;5055335;28;19949;-63
2022/04/01 05:43:13;;;;;;;;;;;;;;;6.03;70.95;98561.97;5040254;28;20272;-64
2022/04/01 05:45:57;;;;;;;;;;;;;;;6.02;70.63;98573.94;5054612;28;20058;-63
2022/04/01 05:48:41;;;;;;;;;;;;;;;5.97;70.24;98575.59;5054644;28;19987;-62
2022/04/01 05:51:29;;;;;;;;;;;;;;;6.01;70.16;98582.50;5039619;28;20399;-63
2022/04/01 05:54:14;;;;;;;;;;;;;;;5.99;70.88;98581.63;5054278;28;20399;-63
2022/04/01 05:56:59;;;;;;;;;;;;;;;5.98;70.87;98590.19;5040015;28;19927;-63
2022/04/01 05:59:43;;;;;;;;;;;;;;;6.02;70.31;98586.81;5054240;28;20343;-63
2022/04/01 06:02:33;;;;;;;;;;;;;;;5.98;70.21;98597.00;5054294;28;19974;-63
2022/04/01 06:05:31;;;;;;;;;;;;;;;5.93;70.74;98592.66;5054709;28;19943;-63
2022/04/01 06:08:44;;;;;;;;;;;;;;;5.94;70.72;98596.13;5054524;28;19931;-63
2022/04/01 06:11:28;;;;;;;;;;;;;;;5.95;70.81;98597.84;5039363;28;19928;-63
2022/04/01 06:14:31;;;;;;;;;;;;;;;5.96;70.32;98599.59;5039085;28;20410;-62
2022/04/01 06:17:15;;;;;;;;;;;;;;;5.92;70.12;98610.66;5054412;28;20350;-63
2022/04/01 06:20:03;;;;;;;;;;;;;;;5.87;70.29;98615.75;5054341;28;19967;-64
2022/04/01 06:22:55;;;;;;;;;;;;;;;5.85;70.84;98620.03;5039472;28;19928;-63
2022/04/01 06:25:41;;;;;;;;;;;;;;;5.84;70.26;98635.44;5054233;28;19928;-63
2022/04/01 06:28:27;;;;;;;;;;;;;;;5.83;70.52;98641.44;5039157;28;19931;-63
2022/04/01 06:31:12;;;;;;;;;;;;;;;5.85;70.27;98637.13;5039006;28;20047;-62
2022/04/01 06:33:56;;;;;;;;;;;;;;;5.82;71.00;98644.84;5039315;28;19928;-64
2022/04/01 06:36:43;;;;;;;;;;;;;;;5.83;70.81;98651.72;5054052;28;19927;-62
2022/04/01 06:39:42;;;;;;;;;;;;;;;5.85;70.81;98650.00;5054267;28;19966;-63
2022/04/01 06:42:30;;;;;;;;;;;;;;;5.85;70.51;98662.84;5053758;28;20348;-63
2022/04/01 06:45:22;;;;;;;;;;;;;;;5.88;71.05;98668.03;5054012;28;19927;-62
2022/04/01 06:48:06;;;;;;;;;;;;;;;5.86;70.29;98674.88;5038739;28;19927;-63
2022/04/01 06:50:50;;;;;;;;;;;;;;;5.84;70.45;98687.72;5054005;28;19974;-64
2022/04/01 06:53:37;;;;;;;;;;;;;;;5.83;70.53;98691.13;5053458;28;19927;-63
2022/04/01 06:56:21;;;;;;;;;;;;;;;5.83;70.80;98698.00;5039064;28;19927;-62
2022/04/01 06:59:05;;;;;;;;;;;;;;;5.84;71.12;98694.59;5053525;28;19932;-63
2022/04/01 07:01:49;;;;;;;;;;;;;;;5.82;70.47;98697.13;5053509;28;19979;-63
2022/04/01 07:04:33;;;;;;;;;;;;;;;5.80;70.62;98701.38;5053615;28;19927;-63
2022/04/01 07:07:17;;;;;;;;;;;;;;;5.82;70.77;98714.25;5038917;28;19971;-63
2022/04/01 07:10:01;;;;;;;;;;;;;;;5.82;70.65;98711.69;5053677;28;20410;-63
2022/04/01 07:12:45;;;;;;;;;;;;;;;5.81;70.89;98717.69;5038692;28;19947;-62
2022/04/01 07:15:29;;;;;;;;;;;;;;;5.81;70.46;98723.66;5053464;28;20407;-63
2022/04/01 07:18:13;;;;;;;;;;;;;;;5.81;70.79;98726.25;5039118;28;20437;-62
2022/04/01 07:20:56;;;;;;;;;;;;;;;5.77;70.48;98724.47;5053927;28;19928;-63
2022/04/01 07:23:40;;;;;;;;;;;;;;;5.77;70.72;98722.78;5054475;28;19975;-63
2022/04/01 07:26:24;;;;;;;;;;;;;;;5.75;70.25;98723.59;5057687;28;19978;-62
2022/04/01 07:29:08;;;;;;;;;;;;;;;5.72;70.30;98736.41;5042203;28;19970;-63
2022/04/01 07:34:56;;;;;;;;;;;;;;;5.69;70.32;98747.47;5057294;28;19951;-63
2022/04/01 07:37:42;;;;;;;;;;;;;;;5.71;70.36;98750.94;5057502;28;20027;-64
2022/04/01 07:40:26;;;;;;;;;;;;;;;5.73;70.32;98751.84;5042516;28;19977;-63
2022/04/01 07:43:10;;;;;;;;;;;;;;;5.66;70.29;98765.47;5057214;28;19943;-63
2022/04/01 07:45:53;;;;;;;;;;;;;;;5.63;70.44;98767.97;5042577;28;19927;-63
2022/04/01 07:48:38;;;;;;;;;;;;;;;5.57;70.27;98773.88;5057405;28;20017;-62
2022/04/01 07:51:21;;;;;;;;;;;;;;;5.57;70.49;98775.56;5042311;28;19928;-63
2022/04/01 07:54:05;;;;;;;;;;;;;;;5.61;70.56;98774.78;5041359;28;19947;-62
2022/04/01 07:56:49;;;;;;;;;;;;;;;5.62;70.25;98782.50;5056969;28;19928;-63
2022/04/01 07:59:36;;;;;;;;;;;;;;;5.60;70.46;98784.22;5056459;28;19943;-63
2022/04/01 08:02:20;;;;;;;;;;;;;;;5.62;70.16;98794.53;5056842;28;19943;-64
2022/04/01 08:05:04;;;;;;;;;;;;;;;5.58;70.65;98800.44;5042137;28;19975;-63
2022/04/01 08:07:48;;;;;;;;;;;;;;;5.59;71.03;98809.88;5041469;28;19927;-62
2022/04/01 08:10:32;;;;;;;;;;;;;;;5.61;70.34;98805.63;5041718;28;19927;-62
2022/04/01 08:13:18;;;;;;;;;;;;;;;5.61;70.16;98810.78;5056351;28;19928;-62
2022/04/01 08:16:05;;;;;;;;;;;;;;;5.59;70.46;98812.47;5056985;28;20051;-63
2022/04/01 08:18:49;;;;;;;;;;;;;;;5.58;70.45;98821.88;5056243;28;20391;-63
2022/04/01 08:21:33;;;;;;;;;;;;;;;5.59;70.37;98826.19;5056576;28;19928;-64
2022/04/01 08:24:16;;;;;;;;;;;;;;;5.56;70.32;98831.28;5041466;28;19967;-64
2022/04/01 08:27:00;;;;;;;;;;;;;;;5.54;70.27;98827.81;5041246;28;20326;-62
2022/04/01 08:29:44;;;;;;;;;;;;;;;5.55;70.55;98836.38;5041548;28;19927;-63
2022/04/01 08:32:29;;;;;;;;;;;;;;;5.49;70.68;98848.31;5055925;28;19928;-62
2022/04/01 08:35:13;;;;;;;;;;;;;;;5.46;71.09;98852.50;5054842;28;19928;-63
2022/04/01 08:37:58;;;;;;;;;;;;;;;5.47;70.17;98860.25;5056411;28;19928;-62
2022/04/01 08:40:42;;;;;;;;;;;;;;;5.48;70.25;98859.41;5056434;28;19944;-62
2022/04/01 08:43:27;;;;;;;;;;;;;;;5.49;70.49;98863.72;5056350;28;19932;-63
2022/04/01 08:46:11;;;;;;;;;;;;;;;5.52;70.44;98862.91;5056042;28;19955;-63
2022/04/01 08:48:56;;;;;;;;;;;;;;;5.52;70.67;98867.19;5041290;28;20414;-62
2022/04/01 08:51:40;;;;;;;;;;;;;;;5.49;70.84;98868.84;5055759;28;19928;-63
2022/04/01 08:54:24;;;;;;;;;;;;;;;5.51;70.77;98875.72;5055610;28;20353;-62
2022/04/01 08:57:08;;;;;;;;;;;;;;;5.51;70.87;98889.44;5055894;28;20343;-62
2022/04/01 09:00:00;;;;;;;;;;;;;;;5.49;71.14;98886.84;5040730;28;19963;-63
2022/04/01 09:02:50;;;;;;;;;;;;;;;5.49;70.59;98894.56;5021178;28;20352;-63
2022/04/01 09:05:36;;;;;;;;;;;;;;;5.48;71.08;98895.41;5015036;28;19975;-63
2022/04/01 09:08:23;;;;;;;;;;;;;;;5.49;70.69;98906.53;5014419;28;20360;-64
2022/04/01 09:11:09;;;;;;;;;;;;;;;5.48;70.35;98897.97;5015901;28;19929;-63
2022/04/01 09:13:56;;;;;;;;;;;;;;;5.47;70.37;98906.50;5014921;28;19929;-63
2022/04/01 09:16:41;;;;;;;;;;;;;;;5.46;70.90;98909.91;5015067;28;20290;-63
2022/04/01 09:19:30;;;;;;;;;;;;;;;5.47;70.19;98916.78;5015330;28;20368;-63
2022/04/01 09:22:23;;;;;;;;;;;;;;;5.41;70.62;98914.09;5014990;28;19995;-63
2022/04/01 09:25:15;;;;;;;;;;;;;;;5.42;70.76;98920.13;5014405;28;19928;-62
2022/04/01 09:27:58;;;;;;;;;;;;;;;5.43;70.56;98924.41;5014713;28;19929;-63
2022/04/01 09:30:42;;;;;;;;;;;;;;;5.37;70.12;98927.75;5014437;28;19927;-62
2022/04/01 09:33:43;;;;;;;;;;;;;;;5.38;70.18;98932.00;5015115;28;20059;-64
2022/04/01 09:36:37;;;;;;;;;;;;;;;5.33;70.37;98931.94;5015589;28;19928;-63
2022/04/01 09:39:23;;;;;;;;;;;;;;;5.37;70.35;98937.13;5015645;28;19975;-63
2022/04/01 09:42:09;;;;;;;;;;;;;;;5.36;70.67;98933.72;5014592;28;20300;-63
2022/04/01 09:44:57;;;;;;;;;;;;;;;5.40;70.81;98940.63;5014215;28;19944;-63
2022/04/01 09:47:41;;;;;;;;;;;;;;;5.37;70.54;98932.88;5015200;28;19944;-63
2022/04/01 09:50:29;;;;;;;;;;;;;;;5.40;70.37;98940.63;5015938;28;19936;-63
2022/04/01 09:53:14;;;;;;;;;;;;;;;5.31;70.88;98946.44;5014106;28;20012;-63
2022/04/01 09:55:59;;;;;;;;;;;;;;;5.37;70.67;98952.56;5015048;28;19928;-62
2022/04/01 09:58:43;;;;;;;;;;;;;;;5.31;70.31;98955.88;5014997;28;19928;-63
2022/04/01 10:01:31;;;;;;;;;;;;;;;5.25;70.90;98955.75;5019143;28;19928;-62
2022/04/01 10:04:15;;;;;;;;;;;;;;;5.26;70.98;98967.75;5039873;28;19931;-63
2022/04/01 10:07:02;;;;;;;;;;;;;;;5.29;70.63;98967.81;5039719;28;19928;-63
2022/04/01 10:09:48;;;;;;;;;;;;;;;5.31;70.20;98971.28;5039598;28;19944;-63
2022/04/01 10:12:36;;;;;;;;;;;;;;;5.21;70.59;98980.50;5039721;28;19928;-63
2022/04/01 10:15:20;;;;;;;;;;;;;;;5.21;70.34;98980.50;5038865;28;20403;-63
2022/04/01 10:18:04;;;;;;;;;;;;;;;5.22;70.45;98983.94;5054704;28;20023;-63
2022/04/01 10:20:52;;;;;;;;;;;;;;;5.21;70.18;98983.09;5054266;28;20034;-63
2022/04/01 10:23:38;;;;;;;;;;;;;;;5.18;70.30;98983.91;5054007;28;20456;-63
2022/04/01 10:26:28;;;;;;;;;;;;;;;5.20;70.30;98990.78;5054614;28;19955;-63
2022/04/01 10:29:12;;;;;;;;;;;;;;;5.16;70.46;98987.25;5039913;28;19927;-62
2022/04/01 10:32:16;;;;;;;;;;;;;;;5.20;70.86;98985.63;5054443;28;19986;-63
2022/04/01 10:35:01;;;;;;;;;;;;;;;5.20;70.29;98993.34;5053894;28;20014;-63
2022/04/01 10:37:45;;;;;;;;;;;;;;;5.20;70.56;98993.34;5053830;28;19932;-63
2022/04/01 10:40:33;;;;;;;;;;;;;;;5.19;70.46;99005.28;5053972;28;19943;-64
2022/04/01 10:43:18;;;;;;;;;;;;;;;5.21;70.32;99005.34;5039300;28;19928;-62
2022/04/01 10:46:10;;;;;;;;;;;;;;;5.16;69.94;99008.69;5038947;28;19978;-62
2022/04/01 10:52:15;;;;;;;;;;;;;;;5.21;70.51;99010.50;5053724;28;19932;-63
2022/04/01 10:55:02;;;;;;;;;;;;;;;5.18;70.51;99014.72;5053272;28;19928;-63
2022/04/01 10:57:47;;;;;;;;;;;;;;;5.21;70.82;99016.47;5053218;28;20280;-63
2022/04/01 11:00:33;;;;;;;;;;;;;;;5.18;70.40;99016.41;5053835;28;19955;-63
2022/04/01 11:03:23;;;;;;;;;;;;;;;5.20;69.81;99019.03;5053513;28;20425;-63
2022/04/01 11:06:23;;;;;;;;;;;;;;;5.13;70.41;99026.59;5038620;28;20445;-62
2022/04/01 11:09:07;;;;;;;;;;;;;;;5.09;70.33;99029.06;5038959;28;20063;-63
2022/04/01 11:12:10;;;;;;;;;;;;;;;5.08;69.84;99025.63;5053190;28;20300;-62
2022/04/01 11:15:07;;;;;;;;;;;;;;;5.02;70.05;99036.63;5053366;28;19927;-63
2022/04/01 11:17:57;;;;;;;;;;;;;;;5.04;70.22;99039.25;5053665;28;19967;-63
2022/04/01 11:20:54;;;;;;;;;;;;;;;5.05;70.56;99038.41;5053317;28;19928;-63
2022/04/01 11:23:38;;;;;;;;;;;;;;;5.04;70.14;99044.38;5053361;28;19927;-64
2022/04/01 11:26:38;;;;;;;;;;;;;;;5.02;70.14;99046.03;5053023;28;19927;-63
2022/04/01 11:29:23;;;;;;;;;;;;;;;5.02;70.60;99043.47;5053370;28;19928;-63
2022/04/01 11:32:08;;;;;;;;;;;;;;;5.05;69.86;99056.38;5053007;28;19928;-62
2022/04/01 11:34:56;;;;;;;;;;;;;;;5.02;70.33;99056.31;5053385;28;19927;-63
2022/04/01 11:37:41;;;;;;;;;;;;;;;5.06;70.62;99054.69;5038315;28;19927;-63
2022/04/01 11:40:29;;;;;;;;;;;;;;;5.03;70.25;99065.75;5038332;28;20403;-63
2022/04/01 11:43:17;;;;;;;;;;;;;;;5.01;70.05;99067.41;5037810;28;19944;-63
2022/04/01 11:46:03;;;;;;;;;;;;;;;4.95;69.72;99068.16;5038621;28;19928;-63
2022/04/01 11:48:49;;;;;;;;;;;;;;;4.96;70.33;99075.03;5038147;28;19943;-63
2022/04/01 11:51:36;;;;;;;;;;;;;;;4.97;69.71;99070.75;5053671;28;20299;-62
2022/04/01 11:54:21;;;;;;;;;;;;;;;4.98;69.99;99072.47;5038375;28;19944;-63
2022/04/01 11:57:10;;;;;;;;;;;;;;;4.96;70.09;99075.03;5038065;28;19959;-62
2022/04/01 11:59:54;;;;;;;;;;;;;;;4.91;69.84;99075.72;5038472;28;20343;-62
2022/04/01 12:02:38;;;;;;;;;;;;;;;4.93;70.26;99080.09;5037935;28;19990;-63
2022/04/01 12:05:22;;;;;;;;;;;;;;;4.95;69.90;99073.28;5052726;28;19999;-63
2022/04/01 12:11:10;;;;;;;;;;;;;;;4.87;69.39;99075.69;5055940;28;19927;-63
2022/04/01 12:13:54;;;;;;;;;;;;;;;4.90;69.09;99079.16;5041803;28;19971;-63
2022/04/01 12:16:39;;;;;;;;;;;;;;;4.88;69.80;99077.41;5056137;28;19970;-63
2022/04/01 12:19:23;;;;;;;;;;;;;;;4.86;69.36;99078.19;5041944;28;20395;-63
2022/04/01 12:22:08;;;;;;;;;;;;;;;4.85;69.70;99072.19;5056921;28;19927;-62
2022/04/01 12:24:55;;;;;;;;;;;;;;;4.87;69.41;99079.94;5056767;28;20058;-63
2022/04/01 12:27:55;;;;;;;;;;;;;;;4.82;69.79;99082.41;5056221;28;19987;-63
2022/04/01 12:30:44;;;;;;;;;;;;;;;4.84;69.69;99088.44;5040992;28;19928;-62
2022/04/01 12:33:32;;;;;;;;;;;;;;;4.84;69.26;99083.31;5056186;28;19975;-62
2022/04/01 12:36:27;;;;;;;;;;;;;;;4.87;69.62;99091.09;5055960;28;19931;-64
2022/04/01 12:39:15;;;;;;;;;;;;;;;4.88;69.97;99092.81;5041103;28;20006;-64
2022/04/01 12:42:01;;;;;;;;;;;;;;;4.90;69.60;99095.41;5041671;28;19943;-62
2022/04/01 12:44:45;;;;;;;;;;;;;;;4.94;70.38;99099.81;5041001;28;19928;-63
2022/04/01 12:47:30;;;;;;;;;;;;;;;4.93;70.02;99095.50;5041268;28;19927;-63
2022/04/01 12:50:33;;;;;;;;;;;;;;;4.98;70.51;99098.16;5041306;28;19928;-62
2022/04/01 12:53:17;;;;;;;;;;;;;;;4.96;70.17;99102.38;5040871;28;19949;-63
2022/04/01 12:56:14;;;;;;;;;;;;;;;4.94;70.01;99109.19;5055439;28;19943;-63
2022/04/01 12:58:59;;;;;;;;;;;;;;;4.97;70.02;99107.56;5055925;28;20394;-62
2022/04/01 13:01:44;;;;;;;;;;;;;;;4.97;69.87;99112.72;5040861;28;19966;-62
2022/04/01 13:04:37;;;;;;;;;;;;;;;4.95;69.64;99118.63;5040527;28;19927;-63
2022/04/01 13:07:22;;;;;;;;;;;;;;;4.97;70.05;99114.41;5041011;28;19967;-63
2022/04/01 13:10:16;;;;;;;;;;;;;;;4.97;70.09;99115.28;5040614;28;20311;-62
2022/04/01 13:13:00;;;;;;;;;;;;;;;4.95;70.18;99109.25;5040296;28;19971;-63
2022/04/01 13:15:49;;;;;;;;;;;;;;;4.95;69.69;99110.91;5055329;28;19974;-63
2022/04/01 13:18:33;;;;;;;;;;;;;;;4.95;70.40;99111.81;5055286;28;19928;-63
2022/04/01 13:21:22;;;;;;;;;;;;;;;4.95;70.06;99110.91;5039289;28;20022;-62
2022/04/01 13:24:07;;;;;;;;;;;;;;;4.96;70.06;99103.28;5040486;28;19928;-63
2022/04/01 13:26:51;;;;;;;;;;;;;;;5.01;69.67;99114.50;5040533;28;20288;-63
2022/04/01 13:29:35;;;;;;;;;;;;;;;5.02;70.30;99112.81;5054874;28;20351;-63
2022/04/01 13:32:25;;;;;;;;;;;;;;;4.97;69.95;99123.00;5055437;28;19927;-63
2022/04/01 13:35:21;;;;;;;;;;;;;;;4.95;70.12;99123.75;5039490;28;19943;-63
2022/04/01 13:38:07;;;;;;;;;;;;;;;4.87;69.74;99121.91;5039096;28;20468;-63
2022/04/01 13:40:51;;;;;;;;;;;;;;;4.84;69.74;99131.19;5054780;28;19927;-63
2022/04/01 13:43:35;;;;;;;;;;;;;;;4.86;69.89;99121.84;5039988;28;20058;-63
2022/04/01 13:46:21;;;;;;;;;;;;;;;4.83;69.63;99134.59;5054546;28;20338;-62
2022/04/01 13:49:08;;;;;;;;;;;;;;;4.77;69.33;99130.19;5039730;28;19931;-63
2022/04/01 13:51:52;;;;;;;;;;;;;;;4.74;69.56;99135.25;5040033;28;19927;-64
2022/04/01 13:54:40;;;;;;;;;;;;;;;4.72;69.77;99136.91;5039377;28;19996;-63
2022/04/01 13:57:24;;;;;;;;;;;;;;;4.75;69.55;99136.97;5039928;28;19928;-63
2022/04/01 14:00:11;;;;;;;;;;;;;;;4.75;69.80;99129.28;5054809;28;20062;-63
2022/04/01 14:02:55;;;;;;;;;;;;;;;4.75;69.83;99144.69;5019139;28;20277;-62
2022/04/01 14:05:39;;;;;;;;;;;;;;;4.73;69.66;99151.50;5014523;28;19971;-63
2022/04/01 14:08:25;;;;;;;;;;;;;;;4.73;70.09;99149.78;5013998;28;19928;-64
2022/04/01 14:11:11;;;;;;;;;;;;;;;4.72;69.87;99154.88;5014455;28;19928;-62
2022/04/01 14:14:01;;;;;;;;;;;;;;;4.73;69.88;99149.78;5014416;28;19931;-63
2022/04/01 14:16:50;;;;;;;;;;;;;;;4.75;69.13;99156.66;5028050;28;20396;-63
2022/04/01 14:19:34;;;;;;;;;;;;;;;4.68;69.69;99156.50;5014104;28;20281;-63
2022/04/01 14:22:21;;;;;;;;;;;;;;;4.67;69.80;99162.44;5014745;28;20060;-63
2022/04/01 14:25:05;;;;;;;;;;;;;;;4.70;70.13;99159.97;5013685;28;19933;-62
2022/04/01 14:27:50;;;;;;;;;;;;;;;4.72;69.11;99162.59;5014493;28;20437;-62
2022/04/01 14:30:34;;;;;;;;;;;;;;;4.72;69.39;99160.88;5014290;28;20403;-62
2022/04/01 14:33:23;;;;;;;;;;;;;;;4.75;69.08;99170.34;5013416;28;20005;-62
2022/04/01 14:36:11;;;;;;;;;;;;;;;4.70;69.40;99169.38;5013705;28;19927;-62
2022/04/01 14:38:57;;;;;;;;;;;;;;;4.69;69.48;99171.06;5014184;28;19974;-63
2022/04/01 14:41:44;;;;;;;;;;;;;;;4.72;69.11;99175.44;5013370;28;19929;-63
2022/04/01 14:44:29;;;;;;;;;;;;;;;4.70;69.78;99169.38;5027170;28;19955;-62
2022/04/01 14:47:13;;;;;;;;;;;;;;;4.69;69.72;99178.75;5013061;28;19952;-62
2022/04/01 14:49:57;;;;;;;;;;;;;;;4.70;69.92;99175.38;5013774;28;19948;-63
2022/04/01 14:52:41;;;;;;;;;;;;;;;4.72;69.84;99190.84;5013389;28;19976;-63